sensor_id;sensor_type;location;lat;lon;timestamp;P1;durP1;ratioP1;P2;durP2;ratioP2
7440;SDS011;29616;51.950;8.572;2022-10-16T00:01:40;8.40;;;4.70;;
7440;SDS011;29616;51.950;8.572;2022-10-16T00:04:09;8.88;;;4.35;;
7440;SDS011;29616;51.950;8.572;2022-10-16T00:06:37;7.18;;;4.22;;
7440;SDS011;29616;51.950;8.572;2022-10-16T00:09:06;7.78;;;4.47;;
7440;SDS011;29616;51.950;8.572;2022-10-16T00:11:37;9.90;;;4.78;;
7440;SDS011;29616;51.950;8.572;2022-10-16T00:14:08;11.40;;;4.68;;
7440;SDS011;29616;51.950;8.572;2022-10-16T00:16:39;8.98;;;4.78;;
7440;SDS011;29616;51.950;8.572;2022-10-16T00:19:08;8.02;;;4.20;;
7440;SDS011;29616;51.950;8.572;2022-10-16T00:21:38;8.43;;;4.57;;
7440;SDS011;29616;51.950;8.572;2022-10-16T00:24:07;7.85;;;4.72;;
7440;SDS011;29616;51.950;8.572;2022-10-16T00:26:38;10.40;;;4.78;;
7440;SDS011;29616;51.950;8.572;2022-10-16T00:29:07;8.80;;;4.63;;
7440;SDS011;29616;51.950;8.572;2022-10-16T00:31:36;9.13;;;4.25;;
7440;SDS011;29616;51.950;8.572;2022-10-16T00:34:04;5.70;;;4.05;;
7440;SDS011;29616;51.950;8.572;2022-10-16T00:36:32;9.52;;;4.53;;
7440;SDS011;29616;51.950;8.572;2022-10-16T00:39:01;7.47;;;4.03;;
7440;SDS011;29616;51.950;8.572;2022-10-16T00:41:30;17.13;;;6.30;;
7440;SDS011;29616;51.950;8.572;2022-10-16T00:44:00;13.70;;;4.32;;
7440;SDS011;29616;51.950;8.572;2022-10-16T00:46:37;10.15;;;4.60;;
7440;SDS011;29616;51.950;8.572;2022-10-16T00:49:08;8.20;;;4.15;;
7440;SDS011;29616;51.950;8.572;2022-10-16T00:51:39;8.27;;;4.70;;
7440;SDS011;29616;51.950;8.572;2022-10-16T00:54:12;10.13;;;6.40;;
7440;SDS011;29616;51.950;8.572;2022-10-16T00:56:44;24.85;;;15.00;;
7440;SDS011;29616;51.950;8.572;2022-10-16T00:59:16;11.10;;;4.68;;
7440;SDS011;29616;51.950;8.572;2022-10-16T01:01:46;11.40;;;5.00;;
7440;SDS011;29616;51.950;8.572;2022-10-16T01:04:15;11.60;;;4.35;;
7440;SDS011;29616;51.950;8.572;2022-10-16T01:06:46;7.65;;;4.50;;
7440;SDS011;29616;51.950;8.572;2022-10-16T01:09:22;10.35;;;4.55;;
7440;SDS011;29616;51.950;8.572;2022-10-16T01:12:00;7.68;;;4.13;;
7440;SDS011;29616;51.950;8.572;2022-10-16T01:14:40;9.40;;;4.28;;
7440;SDS011;29616;51.950;8.572;2022-10-16T01:17:17;11.90;;;4.75;;
7440;SDS011;29616;51.950;8.572;2022-10-16T01:19:55;9.02;;;4.70;;
7440;SDS011;29616;51.950;8.572;2022-10-16T01:22:37;6.95;;;4.63;;
7440;SDS011;29616;51.950;8.572;2022-10-16T01:25:18;11.75;;;5.30;;
7440;SDS011;29616;51.950;8.572;2022-10-16T01:27:55;10.30;;;4.63;;
7440;SDS011;29616;51.950;8.572;2022-10-16T01:30:25;12.43;;;4.85;;
7440;SDS011;29616;51.950;8.572;2022-10-16T01:32:57;8.95;;;4.53;;
7440;SDS011;29616;51.950;8.572;2022-10-16T01:35:34;12.20;;;4.95;;
7440;SDS011;29616;51.950;8.572;2022-10-16T01:38:07;11.25;;;4.80;;
7440;SDS011;29616;51.950;8.572;2022-10-16T01:40:41;9.85;;;4.57;;
7440;SDS011;29616;51.950;8.572;2022-10-16T01:43:18;10.48;;;5.20;;
7440;SDS011;29616;51.950;8.572;2022-10-16T01:45:49;8.85;;;5.22;;
7440;SDS011;29616;51.950;8.572;2022-10-16T01:48:19;13.38;;;5.40;;
7440;SDS011;29616;51.950;8.572;2022-10-16T01:50:52;10.60;;;5.78;;
7440;SDS011;29616;51.950;8.572;2022-10-16T01:53:27;11.07;;;5.65;;
7440;SDS011;29616;51.950;8.572;2022-10-16T01:55:56;13.57;;;5.00;;
7440;SDS011;29616;51.950;8.572;2022-10-16T01:58:28;10.48;;;5.47;;
7440;SDS011;29616;51.950;8.572;2022-10-16T02:01:01;13.35;;;5.13;;
7440;SDS011;29616;51.950;8.572;2022-10-16T02:03:32;13.25;;;5.65;;
7440;SDS011;29616;51.950;8.572;2022-10-16T02:06:04;14.00;;;5.47;;
7440;SDS011;29616;51.950;8.572;2022-10-16T02:08:32;9.88;;;5.50;;
7440;SDS011;29616;51.950;8.572;2022-10-16T02:11:01;12.50;;;5.90;;
7440;SDS011;29616;51.950;8.572;2022-10-16T02:13:32;15.07;;;5.75;;
7440;SDS011;29616;51.950;8.572;2022-10-16T02:16:06;13.05;;;5.68;;
7440;SDS011;29616;51.950;8.572;2022-10-16T02:18:36;12.90;;;5.72;;
7440;SDS011;29616;51.950;8.572;2022-10-16T02:21:06;13.65;;;5.85;;
7440;SDS011;29616;51.950;8.572;2022-10-16T02:23:42;14.25;;;6.25;;
7440;SDS011;29616;51.950;8.572;2022-10-16T02:26:20;11.73;;;5.13;;
7440;SDS011;29616;51.950;8.572;2022-10-16T02:28:58;12.20;;;5.68;;
7440;SDS011;29616;51.950;8.572;2022-10-16T02:31:32;14.10;;;5.28;;
7440;SDS011;29616;51.950;8.572;2022-10-16T02:34:04;14.07;;;5.97;;
7440;SDS011;29616;51.950;8.572;2022-10-16T02:36:34;13.02;;;5.35;;
7440;SDS011;29616;51.950;8.572;2022-10-16T02:39:03;15.52;;;5.75;;
7440;SDS011;29616;51.950;8.572;2022-10-16T02:41:32;10.93;;;5.90;;
7440;SDS011;29616;51.950;8.572;2022-10-16T02:44:03;13.25;;;5.70;;
7440;SDS011;29616;51.950;8.572;2022-10-16T02:46:31;15.23;;;5.80;;
7440;SDS011;29616;51.950;8.572;2022-10-16T02:48:59;13.23;;;6.40;;
7440;SDS011;29616;51.950;8.572;2022-10-16T02:51:28;15.25;;;6.22;;
7440;SDS011;29616;51.950;8.572;2022-10-16T02:53:56;623.40;;;328.08;;
7440;SDS011;29616;51.950;8.572;2022-10-16T02:56:24;1346.95;;;776.13;;
7440;SDS011;29616;51.950;8.572;2022-10-16T02:58:52;1045.68;;;489.60;;
7440;SDS011;29616;51.950;8.572;2022-10-16T03:01:22;792.83;;;345.10;;
7440;SDS011;29616;51.950;8.572;2022-10-16T03:03:51;1014.85;;;447.52;;
7440;SDS011;29616;51.950;8.572;2022-10-16T03:06:19;1269.85;;;598.83;;
7440;SDS011;29616;51.950;8.572;2022-10-16T03:08:48;946.03;;;404.02;;
7440;SDS011;29616;51.950;8.572;2022-10-16T03:11:16;1011.92;;;469.08;;
7440;SDS011;29616;51.950;8.572;2022-10-16T03:13:45;1216.85;;;571.97;;
7440;SDS011;29616;51.950;8.572;2022-10-16T03:16:13;1134.40;;;533.45;;
7440;SDS011;29616;51.950;8.572;2022-10-16T03:18:43;958.72;;;459.40;;
7440;SDS011;29616;51.950;8.572;2022-10-16T03:21:15;1032.03;;;480.90;;
7440;SDS011;29616;51.950;8.572;2022-10-16T03:23:43;939.83;;;468.55;;
7440;SDS011;29616;51.950;8.572;2022-10-16T03:26:11;1065.90;;;522.13;;
7440;SDS011;29616;51.950;8.572;2022-10-16T03:28:40;1052.75;;;514.50;;
7440;SDS011;29616;51.950;8.572;2022-10-16T03:31:08;1023.72;;;469.75;;
7440;SDS011;29616;51.950;8.572;2022-10-16T03:33:37;1084.43;;;518.53;;
7440;SDS011;29616;51.950;8.572;2022-10-16T03:36:06;1028.05;;;487.42;;
7440;SDS011;29616;51.950;8.572;2022-10-16T03:38:35;960.45;;;440.27;;
7440;SDS011;29616;51.950;8.572;2022-10-16T03:41:03;947.65;;;444.30;;
7440;SDS011;29616;51.950;8.572;2022-10-16T03:43:33;988.28;;;530.55;;
7440;SDS011;29616;51.950;8.572;2022-10-16T03:46:02;683.67;;;329.65;;
7440;SDS011;29616;51.950;8.572;2022-10-16T03:48:30;921.08;;;459.70;;
7440;SDS011;29616;51.950;8.572;2022-10-16T03:50:58;771.80;;;356.83;;
7440;SDS011;29616;51.950;8.572;2022-10-16T03:53:28;406.17;;;166.13;;
7440;SDS011;29616;51.950;8.572;2022-10-16T03:55:56;690.22;;;316.40;;
7440;SDS011;29616;51.950;8.572;2022-10-16T03:58:25;671.60;;;295.60;;
7440;SDS011;29616;51.950;8.572;2022-10-16T04:00:54;807.47;;;364.23;;
7440;SDS011;29616;51.950;8.572;2022-10-16T04:03:22;635.22;;;277.50;;
7440;SDS011;29616;51.950;8.572;2022-10-16T04:05:51;564.25;;;237.13;;
7440;SDS011;29616;51.950;8.572;2022-10-16T04:08:19;696.67;;;309.20;;
7440;SDS011;29616;51.950;8.572;2022-10-16T04:10:49;902.25;;;410.63;;
7440;SDS011;29616;51.950;8.572;2022-10-16T04:13:17;1072.53;;;525.20;;
7440;SDS011;29616;51.950;8.572;2022-10-16T04:15:50;824.03;;;397.08;;
7440;SDS011;29616;51.950;8.572;2022-10-16T04:18:19;632.72;;;288.52;;
7440;SDS011;29616;51.950;8.572;2022-10-16T04:20:47;455.27;;;192.63;;
7440;SDS011;29616;51.950;8.572;2022-10-16T04:23:15;57.70;;;28.80;;
7440;SDS011;29616;51.950;8.572;2022-10-16T04:25:44;12.38;;;6.00;;
7440;SDS011;29616;51.950;8.572;2022-10-16T04:28:13;11.65;;;6.18;;
7440;SDS011;29616;51.950;8.572;2022-10-16T04:30:42;12.98;;;6.25;;
7440;SDS011;29616;51.950;8.572;2022-10-16T04:33:10;13.57;;;6.22;;
7440;SDS011;29616;51.950;8.572;2022-10-16T04:35:39;15.30;;;6.50;;
7440;SDS011;29616;51.950;8.572;2022-10-16T04:38:07;12.35;;;6.00;;
7440;SDS011;29616;51.950;8.572;2022-10-16T04:40:35;13.98;;;5.85;;
7440;SDS011;29616;51.950;8.572;2022-10-16T04:43:04;12.77;;;6.43;;
7440;SDS011;29616;51.950;8.572;2022-10-16T04:45:35;14.82;;;6.18;;
7440;SDS011;29616;51.950;8.572;2022-10-16T04:48:03;10.38;;;6.13;;
7440;SDS011;29616;51.950;8.572;2022-10-16T04:50:31;12.10;;;5.57;;
7440;SDS011;29616;51.950;8.572;2022-10-16T04:53:04;11.15;;;5.68;;
7440;SDS011;29616;51.950;8.572;2022-10-16T04:55:33;10.82;;;6.32;;
7440;SDS011;29616;51.950;8.572;2022-10-16T04:58:01;11.07;;;5.43;;
7440;SDS011;29616;51.950;8.572;2022-10-16T05:00:30;12.00;;;5.65;;
7440;SDS011;29616;51.950;8.572;2022-10-16T05:03:00;11.52;;;5.68;;
7440;SDS011;29616;51.950;8.572;2022-10-16T05:05:32;12.98;;;6.13;;
7440;SDS011;29616;51.950;8.572;2022-10-16T05:08:01;12.65;;;6.00;;
7440;SDS011;29616;51.950;8.572;2022-10-16T05:10:30;11.48;;;5.93;;
7440;SDS011;29616;51.950;8.572;2022-10-16T05:12:58;10.80;;;5.45;;
7440;SDS011;29616;51.950;8.572;2022-10-16T05:15:27;12.82;;;6.28;;
7440;SDS011;29616;51.950;8.572;2022-10-16T05:17:55;8.98;;;5.32;;
7440;SDS011;29616;51.950;8.572;2022-10-16T05:20:25;15.15;;;4.95;;
7440;SDS011;29616;51.950;8.572;2022-10-16T05:22:53;10.57;;;5.22;;
7440;SDS011;29616;51.950;8.572;2022-10-16T05:25:21;9.13;;;5.50;;
7440;SDS011;29616;51.950;8.572;2022-10-16T05:27:50;11.02;;;5.38;;
7440;SDS011;29616;51.950;8.572;2022-10-16T05:30:18;8.52;;;4.70;;
7440;SDS011;29616;51.950;8.572;2022-10-16T05:32:47;10.57;;;5.05;;
7440;SDS011;29616;51.950;8.572;2022-10-16T05:35:16;8.32;;;4.43;;
7440;SDS011;29616;51.950;8.572;2022-10-16T05:37:47;7.57;;;4.60;;
7440;SDS011;29616;51.950;8.572;2022-10-16T05:40:16;10.20;;;4.57;;
7440;SDS011;29616;51.950;8.572;2022-10-16T05:42:44;7.35;;;4.53;;
7440;SDS011;29616;51.950;8.572;2022-10-16T05:45:12;10.15;;;4.43;;
7440;SDS011;29616;51.950;8.572;2022-10-16T05:47:40;6.35;;;3.58;;
7440;SDS011;29616;51.950;8.572;2022-10-16T05:50:08;7.68;;;4.30;;
7440;SDS011;29616;51.950;8.572;2022-10-16T05:52:37;6.97;;;4.68;;
7440;SDS011;29616;51.950;8.572;2022-10-16T05:55:07;9.32;;;4.82;;
7440;SDS011;29616;51.950;8.572;2022-10-16T05:57:36;9.57;;;4.57;;
7440;SDS011;29616;51.950;8.572;2022-10-16T06:00:05;8.73;;;4.78;;
7440;SDS011;29616;51.950;8.572;2022-10-16T06:02:40;8.20;;;4.25;;
7440;SDS011;29616;51.950;8.572;2022-10-16T06:05:08;10.25;;;5.07;;
7440;SDS011;29616;51.950;8.572;2022-10-16T06:07:36;8.48;;;4.45;;
7440;SDS011;29616;51.950;8.572;2022-10-16T06:10:07;10.63;;;4.65;;
7440;SDS011;29616;51.950;8.572;2022-10-16T06:12:36;9.70;;;5.20;;
7440;SDS011;29616;51.950;8.572;2022-10-16T06:15:05;8.80;;;4.72;;
7440;SDS011;29616;51.950;8.572;2022-10-16T06:17:33;10.15;;;4.60;;
7440;SDS011;29616;51.950;8.572;2022-10-16T06:20:02;11.77;;;4.65;;
7440;SDS011;29616;51.950;8.572;2022-10-16T06:22:30;8.63;;;4.53;;
7440;SDS011;29616;51.950;8.572;2022-10-16T06:24:59;11.32;;;5.25;;
7440;SDS011;29616;51.950;8.572;2022-10-16T06:27:28;9.52;;;5.18;;
7440;SDS011;29616;51.950;8.572;2022-10-16T06:29:57;8.50;;;5.30;;
7440;SDS011;29616;51.950;8.572;2022-10-16T06:32:25;11.75;;;5.40;;
7440;SDS011;29616;51.950;8.572;2022-10-16T06:34:55;9.20;;;5.25;;
7440;SDS011;29616;51.950;8.572;2022-10-16T06:37:23;11.57;;;5.47;;
7440;SDS011;29616;51.950;8.572;2022-10-16T06:39:52;11.02;;;5.43;;
7440;SDS011;29616;51.950;8.572;2022-10-16T06:42:20;9.85;;;5.70;;
7440;SDS011;29616;51.950;8.572;2022-10-16T06:44:51;9.88;;;5.68;;
7440;SDS011;29616;51.950;8.572;2022-10-16T06:47:19;9.07;;;5.47;;
7440;SDS011;29616;51.950;8.572;2022-10-16T06:49:48;11.02;;;5.88;;
7440;SDS011;29616;51.950;8.572;2022-10-16T06:52:19;9.20;;;4.95;;
7440;SDS011;29616;51.950;8.572;2022-10-16T06:54:49;10.23;;;5.05;;
7440;SDS011;29616;51.950;8.572;2022-10-16T06:57:17;8.27;;;5.05;;
7440;SDS011;29616;51.950;8.572;2022-10-16T06:59:45;8.13;;;4.93;;
7440;SDS011;29616;51.950;8.572;2022-10-16T07:02:21;8.55;;;5.07;;
7440;SDS011;29616;51.950;8.572;2022-10-16T07:04:50;6.65;;;4.20;;
7440;SDS011;29616;51.950;8.572;2022-10-16T07:07:19;7.57;;;4.88;;
7440;SDS011;29616;51.950;8.572;2022-10-16T07:09:47;8.13;;;5.05;;
7440;SDS011;29616;51.950;8.572;2022-10-16T07:12:16;8.95;;;4.95;;
7440;SDS011;29616;51.950;8.572;2022-10-16T07:14:44;8.27;;;4.80;;
7440;SDS011;29616;51.950;8.572;2022-10-16T07:17:13;8.10;;;4.28;;
7440;SDS011;29616;51.950;8.572;2022-10-16T07:19:42;5.30;;;3.75;;
7440;SDS011;29616;51.950;8.572;2022-10-16T07:22:11;6.05;;;3.35;;
7440;SDS011;29616;51.950;8.572;2022-10-16T07:24:40;4.40;;;3.70;;
7440;SDS011;29616;51.950;8.572;2022-10-16T07:27:13;7.10;;;3.85;;
7440;SDS011;29616;51.950;8.572;2022-10-16T07:29:42;7.82;;;3.47;;
7440;SDS011;29616;51.950;8.572;2022-10-16T07:32:11;5.78;;;3.30;;
7440;SDS011;29616;51.950;8.572;2022-10-16T07:34:39;4.63;;;3.13;;
7440;SDS011;29616;51.950;8.572;2022-10-16T07:37:09;5.22;;;2.80;;
7440;SDS011;29616;51.950;8.572;2022-10-16T07:39:38;3.88;;;3.42;;
7440;SDS011;29616;51.950;8.572;2022-10-16T07:42:06;5.68;;;3.38;;
7440;SDS011;29616;51.950;8.572;2022-10-16T07:44:34;4.90;;;3.03;;
7440;SDS011;29616;51.950;8.572;2022-10-16T07:47:02;3.78;;;2.97;;
7440;SDS011;29616;51.950;8.572;2022-10-16T07:49:31;3.13;;;2.38;;
7440;SDS011;29616;51.950;8.572;2022-10-16T07:51:59;3.10;;;2.80;;
7440;SDS011;29616;51.950;8.572;2022-10-16T07:54:28;2.00;;;1.65;;
7440;SDS011;29616;51.950;8.572;2022-10-16T07:56:57;3.00;;;2.25;;
7440;SDS011;29616;51.950;8.572;2022-10-16T07:59:25;2.88;;;2.25;;
7440;SDS011;29616;51.950;8.572;2022-10-16T08:01:53;7.70;;;3.03;;
7440;SDS011;29616;51.950;8.572;2022-10-16T08:04:22;3.30;;;2.22;;
7440;SDS011;29616;51.950;8.572;2022-10-16T08:06:51;2.28;;;2.08;;
7440;SDS011;29616;51.950;8.572;2022-10-16T08:09:20;2.20;;;1.90;;
7440;SDS011;29616;51.950;8.572;2022-10-16T08:11:50;4.35;;;1.77;;
7440;SDS011;29616;51.950;8.572;2022-10-16T08:14:19;3.05;;;1.83;;
7440;SDS011;29616;51.950;8.572;2022-10-16T08:16:47;1.92;;;1.80;;
7440;SDS011;29616;51.950;8.572;2022-10-16T08:19:15;3.13;;;1.63;;
7440;SDS011;29616;51.950;8.572;2022-10-16T08:21:46;1.67;;;1.55;;
7440;SDS011;29616;51.950;8.572;2022-10-16T08:24:15;2.57;;;1.60;;
7440;SDS011;29616;51.950;8.572;2022-10-16T08:26:43;1.58;;;1.48;;
7440;SDS011;29616;51.950;8.572;2022-10-16T08:29:14;2.17;;;1.60;;
7440;SDS011;29616;51.950;8.572;2022-10-16T08:31:42;1.50;;;1.40;;
7440;SDS011;29616;51.950;8.572;2022-10-16T08:34:10;1.60;;;1.00;;
7440;SDS011;29616;51.950;8.572;2022-10-16T08:36:39;3.25;;;1.40;;
7440;SDS011;29616;51.950;8.572;2022-10-16T08:39:07;4.18;;;1.33;;
7440;SDS011;29616;51.950;8.572;2022-10-16T08:41:41;1.40;;;1.20;;
7440;SDS011;29616;51.950;8.572;2022-10-16T08:44:50;1.20;;;1.10;;
7440;SDS011;29616;51.950;8.572;2022-10-16T08:48:00;17.25;;;11.98;;
7440;SDS011;29616;51.950;8.572;2022-10-16T08:50:43;987.25;;;399.73;;
7440;SDS011;29616;51.950;8.572;2022-10-16T08:53:14;1060.90;;;425.00;;
7440;SDS011;29616;51.950;8.572;2022-10-16T08:55:49;1135.18;;;454.10;;
7440;SDS011;29616;51.950;8.572;2022-10-16T08:58:20;1293.80;;;583.88;;
7440;SDS011;29616;51.950;8.572;2022-10-16T09:00:53;1320.43;;;596.78;;
7440;SDS011;29616;51.950;8.572;2022-10-16T09:03:33;1098.68;;;517.95;;
7440;SDS011;29616;51.950;8.572;2022-10-16T09:06:23;1074.75;;;493.23;;
7440;SDS011;29616;51.950;8.572;2022-10-16T09:09:11;940.88;;;375.75;;
7440;SDS011;29616;51.950;8.572;2022-10-16T09:12:16;987.08;;;408.85;;
7440;SDS011;29616;51.950;8.572;2022-10-16T09:14:52;909.17;;;388.17;;
7440;SDS011;29616;51.950;8.572;2022-10-16T09:17:34;1133.25;;;483.83;;
7440;SDS011;29616;51.950;8.572;2022-10-16T09:20:15;1246.45;;;572.05;;
7440;SDS011;29616;51.950;8.572;2022-10-16T09:23:00;653.28;;;259.13;;
7440;SDS011;29616;51.950;8.572;2022-10-16T09:25:43;889.58;;;372.13;;
7440;SDS011;29616;51.950;8.572;2022-10-16T09:28:15;910.85;;;404.58;;
7440;SDS011;29616;51.950;8.572;2022-10-16T09:30:45;874.67;;;370.83;;
7440;SDS011;29616;51.950;8.572;2022-10-16T09:33:18;900.43;;;374.13;;
7440;SDS011;29616;51.950;8.572;2022-10-16T09:35:50;647.88;;;268.42;;
7440;SDS011;29616;51.950;8.572;2022-10-16T09:40:54;464.00;;;186.68;;
7440;SDS011;29616;51.950;8.572;2022-10-16T09:43:30;629.17;;;256.77;;
7440;SDS011;29616;51.950;8.572;2022-10-16T09:46:03;470.20;;;193.90;;
7440;SDS011;29616;51.950;8.572;2022-10-16T09:48:36;35.90;;;14.63;;
7440;SDS011;29616;51.950;8.572;2022-10-16T09:51:14;859.50;;;371.85;;
7440;SDS011;29616;51.950;8.572;2022-10-16T09:53:53;30.52;;;22.73;;
7440;SDS011;29616;51.950;8.572;2022-10-16T09:56:24;76.85;;;42.33;;
7440;SDS011;29616;51.950;8.572;2022-10-16T09:58:56;1.30;;;0.80;;
7440;SDS011;29616;51.950;8.572;2022-10-16T10:01:30;3.03;;;0.90;;
7440;SDS011;29616;51.950;8.572;2022-10-16T10:04:06;1.00;;;0.80;;
7440;SDS011;29616;51.950;8.572;2022-10-16T10:06:35;2.53;;;1.02;;
7440;SDS011;29616;51.950;8.572;2022-10-16T10:09:15;1.67;;;1.00;;
7440;SDS011;29616;51.950;8.572;2022-10-16T10:11:48;0.68;;;0.60;;
7440;SDS011;29616;51.950;8.572;2022-10-16T10:14:22;1.63;;;0.80;;
7440;SDS011;29616;51.950;8.572;2022-10-16T10:17:02;3.58;;;0.77;;
7440;SDS011;29616;51.950;8.572;2022-10-16T10:19:43;2.67;;;0.80;;
7440;SDS011;29616;51.950;8.572;2022-10-16T10:22:21;3.33;;;0.80;;
7440;SDS011;29616;51.950;8.572;2022-10-16T10:30:58;2.42;;;0.80;;
7440;SDS011;29616;51.950;8.572;2022-10-16T10:33:38;0.80;;;0.50;;
7440;SDS011;29616;51.950;8.572;2022-10-16T10:36:16;2.22;;;0.80;;
7440;SDS011;29616;51.950;8.572;2022-10-16T10:38:57;6.00;;;0.90;;
7440;SDS011;29616;51.950;8.572;2022-10-16T10:41:51;1.55;;;0.80;;
7440;SDS011;29616;51.950;8.572;2022-10-16T10:44:47;2.38;;;0.70;;
7440;SDS011;29616;51.950;8.572;2022-10-16T10:47:44;1.38;;;0.80;;
7440;SDS011;29616;51.950;8.572;2022-10-16T10:50:25;0.60;;;0.60;;
7440;SDS011;29616;51.950;8.572;2022-10-16T10:53:05;2.58;;;0.60;;
7440;SDS011;29616;51.950;8.572;2022-10-16T10:55:45;0.75;;;0.60;;
7440;SDS011;29616;51.950;8.572;2022-10-16T10:58:29;0.95;;;0.68;;
7440;SDS011;29616;51.950;8.572;2022-10-16T11:01:39;1.83;;;0.93;;
7440;SDS011;29616;51.950;8.572;2022-10-16T11:07:27;4.10;;;0.70;;
7440;SDS011;29616;51.950;8.572;2022-10-16T11:10:03;1.65;;;0.73;;
7440;SDS011;29616;51.950;8.572;2022-10-16T11:12:42;0.90;;;0.57;;
7440;SDS011;29616;51.950;8.572;2022-10-16T11:15:16;1.48;;;0.73;;
7440;SDS011;29616;51.950;8.572;2022-10-16T11:17:50;0.50;;;0.50;;
7440;SDS011;29616;51.950;8.572;2022-10-16T11:20:24;2.05;;;0.77;;
7440;SDS011;29616;51.950;8.572;2022-10-16T11:22:56;5.60;;;0.98;;
7440;SDS011;29616;51.950;8.572;2022-10-16T11:25:31;1.02;;;0.70;;
7440;SDS011;29616;51.950;8.572;2022-10-16T11:28:01;2.80;;;0.70;;
7440;SDS011;29616;51.950;8.572;2022-10-16T11:30:40;3.30;;;0.80;;
7440;SDS011;29616;51.950;8.572;2022-10-16T11:33:26;2.65;;;0.85;;
7440;SDS011;29616;51.950;8.572;2022-10-16T11:36:01;2.30;;;0.90;;
7440;SDS011;29616;51.950;8.572;2022-10-16T11:38:38;0.82;;;0.60;;
7440;SDS011;29616;51.950;8.572;2022-10-16T11:41:18;2.55;;;0.70;;
7440;SDS011;29616;51.950;8.572;2022-10-16T11:43:58;0.93;;;0.70;;
7440;SDS011;29616;51.950;8.572;2022-10-16T11:46:59;1.45;;;0.80;;
7440;SDS011;29616;51.950;8.572;2022-10-16T11:49:59;1.92;;;0.80;;
7440;SDS011;29616;51.950;8.572;2022-10-16T11:52:38;2.10;;;0.80;;
7440;SDS011;29616;51.950;8.572;2022-10-16T11:55:17;2.08;;;1.00;;
7440;SDS011;29616;51.950;8.572;2022-10-16T11:57:52;2.05;;;0.70;;
7440;SDS011;29616;51.950;8.572;2022-10-16T12:00:26;1.30;;;0.73;;
7440;SDS011;29616;51.950;8.572;2022-10-16T12:03:02;3.63;;;0.90;;
7440;SDS011;29616;51.950;8.572;2022-10-16T12:05:50;2.72;;;0.90;;
7440;SDS011;29616;51.950;8.572;2022-10-16T12:08:30;2.42;;;1.20;;
7440;SDS011;29616;51.950;8.572;2022-10-16T12:11:06;2.28;;;1.13;;
7440;SDS011;29616;51.950;8.572;2022-10-16T12:13:38;4.38;;;1.10;;
7440;SDS011;29616;51.950;8.572;2022-10-16T12:16:23;4.78;;;1.08;;
7440;SDS011;29616;51.950;8.572;2022-10-16T12:19:02;1.77;;;0.82;;
7440;SDS011;29616;51.950;8.572;2022-10-16T12:21:39;3.05;;;1.15;;
7440;SDS011;29616;51.950;8.572;2022-10-16T12:24:18;4.60;;;1.20;;
7440;SDS011;29616;51.950;8.572;2022-10-16T12:26:55;1.90;;;0.90;;
7440;SDS011;29616;51.950;8.572;2022-10-16T12:29:27;3.40;;;1.08;;
7440;SDS011;29616;51.950;8.572;2022-10-16T12:32:02;2.28;;;0.85;;
7440;SDS011;29616;51.950;8.572;2022-10-16T12:34:37;3.05;;;1.20;;
7440;SDS011;29616;51.950;8.572;2022-10-16T12:37:10;5.30;;;1.80;;
7440;SDS011;29616;51.950;8.572;2022-10-16T12:39:46;1.25;;;1.00;;
7440;SDS011;29616;51.950;8.572;2022-10-16T12:42:20;1.42;;;1.05;;
7440;SDS011;29616;51.950;8.572;2022-10-16T12:45:01;1.88;;;1.05;;
7440;SDS011;29616;51.950;8.572;2022-10-16T12:47:48;2.30;;;1.10;;
7440;SDS011;29616;51.950;8.572;2022-10-16T12:50:24;2.17;;;1.02;;
7440;SDS011;29616;51.950;8.572;2022-10-16T12:53:00;1.83;;;1.52;;
7440;SDS011;29616;51.950;8.572;2022-10-16T12:58:14;1.45;;;0.90;;
7440;SDS011;29616;51.950;8.572;2022-10-16T13:01:02;2.22;;;1.17;;
7440;SDS011;29616;51.950;8.572;2022-10-16T13:03:58;1.75;;;0.88;;
7440;SDS011;29616;51.950;8.572;2022-10-16T13:06:58;1.52;;;0.90;;
7440;SDS011;29616;51.950;8.572;2022-10-16T13:09:49;1.85;;;0.77;;
7440;SDS011;29616;51.950;8.572;2022-10-16T13:12:36;1.02;;;0.70;;
7440;SDS011;29616;51.950;8.572;2022-10-16T13:15:29;0.98;;;0.80;;
7440;SDS011;29616;51.950;8.572;2022-10-16T13:18:15;2.15;;;1.00;;
7440;SDS011;29616;51.950;8.572;2022-10-16T13:20:58;2.47;;;1.08;;
7440;SDS011;29616;51.950;8.572;2022-10-16T13:23:40;1.55;;;0.90;;
7440;SDS011;29616;51.950;8.572;2022-10-16T13:26:21;3.13;;;1.15;;
7440;SDS011;29616;51.950;8.572;2022-10-16T13:28:58;1.63;;;0.80;;
7440;SDS011;29616;51.950;8.572;2022-10-16T13:31:27;2.17;;;1.00;;
7440;SDS011;29616;51.950;8.572;2022-10-16T13:33:59;3.25;;;0.93;;
7440;SDS011;29616;51.950;8.572;2022-10-16T13:36:29;2.05;;;1.00;;
7440;SDS011;29616;51.950;8.572;2022-10-16T13:39:09;1.67;;;1.13;;
7440;SDS011;29616;51.950;8.572;2022-10-16T13:41:41;2.63;;;1.00;;
7440;SDS011;29616;51.950;8.572;2022-10-16T13:44:12;1.90;;;0.90;;
7440;SDS011;29616;51.950;8.572;2022-10-16T13:46:45;6.88;;;1.52;;
7440;SDS011;29616;51.950;8.572;2022-10-16T13:49:16;3.95;;;1.33;;
7440;SDS011;29616;51.950;8.572;2022-10-16T13:51:53;1.95;;;0.85;;
7440;SDS011;29616;51.950;8.572;2022-10-16T13:54:23;4.30;;;1.20;;
7440;SDS011;29616;51.950;8.572;2022-10-16T13:56:53;2.90;;;1.10;;
7440;SDS011;29616;51.950;8.572;2022-10-16T13:59:41;1.15;;;1.00;;
7440;SDS011;29616;51.950;8.572;2022-10-16T14:02:14;2.97;;;0.98;;
7440;SDS011;29616;51.950;8.572;2022-10-16T14:04:51;3.75;;;0.98;;
7440;SDS011;29616;51.950;8.572;2022-10-16T14:07:23;3.20;;;0.80;;
7440;SDS011;29616;51.950;8.572;2022-10-16T14:09:54;1.05;;;0.70;;
7440;SDS011;29616;51.950;8.572;2022-10-16T14:12:23;1.55;;;0.80;;
7440;SDS011;29616;51.950;8.572;2022-10-16T14:14:54;1.20;;;0.75;;
7440;SDS011;29616;51.950;8.572;2022-10-16T14:17:25;0.95;;;0.70;;
7440;SDS011;29616;51.950;8.572;2022-10-16T14:22:31;1.20;;;0.50;;
7440;SDS011;29616;51.950;8.572;2022-10-16T14:25:02;1.33;;;0.70;;
7440;SDS011;29616;51.950;8.572;2022-10-16T14:27:55;1.35;;;0.70;;
7440;SDS011;29616;51.950;8.572;2022-10-16T14:30:32;2.55;;;0.90;;
7440;SDS011;29616;51.950;8.572;2022-10-16T14:33:03;1.80;;;0.85;;
7440;SDS011;29616;51.950;8.572;2022-10-16T14:35:56;2.38;;;0.73;;
7440;SDS011;29616;51.950;8.572;2022-10-16T14:38:32;2.83;;;0.95;;
7440;SDS011;29616;51.950;8.572;2022-10-16T14:41:00;1.98;;;0.80;;
7440;SDS011;29616;51.950;8.572;2022-10-16T14:43:32;4.53;;;0.70;;
7440;SDS011;29616;51.950;8.572;2022-10-16T14:46:03;1.60;;;0.60;;
7440;SDS011;29616;51.950;8.572;2022-10-16T14:48:40;1.90;;;1.00;;
7440;SDS011;29616;51.950;8.572;2022-10-16T14:51:11;2.53;;;0.60;;
7440;SDS011;29616;51.950;8.572;2022-10-16T14:53:41;2.53;;;0.80;;
7440;SDS011;29616;51.950;8.572;2022-10-16T14:56:14;1.40;;;0.80;;
7440;SDS011;29616;51.950;8.572;2022-10-16T14:58:46;3.42;;;0.82;;
7440;SDS011;29616;51.950;8.572;2022-10-16T15:01:14;0.77;;;0.60;;
7440;SDS011;29616;51.950;8.572;2022-10-16T15:03:43;3.25;;;0.70;;
7440;SDS011;29616;51.950;8.572;2022-10-16T15:06:13;3.13;;;0.95;;
7440;SDS011;29616;51.950;8.572;2022-10-16T15:08:43;1.92;;;0.82;;
7440;SDS011;29616;51.950;8.572;2022-10-16T15:11:11;1.95;;;0.98;;
7440;SDS011;29616;51.950;8.572;2022-10-16T15:16:11;0.80;;;0.80;;
7440;SDS011;29616;51.950;8.572;2022-10-16T15:18:42;1.23;;;0.70;;
7440;SDS011;29616;51.950;8.572;2022-10-16T15:21:14;1.45;;;0.80;;
7440;SDS011;29616;51.950;8.572;2022-10-16T15:23:52;3.33;;;0.80;;
7440;SDS011;29616;51.950;8.572;2022-10-16T15:26:20;3.38;;;0.90;;
7440;SDS011;29616;51.950;8.572;2022-10-16T15:28:49;3.90;;;0.90;;
7440;SDS011;29616;51.950;8.572;2022-10-16T15:31:18;4.57;;;0.95;;
7440;SDS011;29616;51.950;8.572;2022-10-16T15:33:49;1.73;;;0.80;;
7440;SDS011;29616;51.950;8.572;2022-10-16T15:36:27;3.97;;;1.00;;
7440;SDS011;29616;51.950;8.572;2022-10-16T15:38:57;2.15;;;0.80;;
7440;SDS011;29616;51.950;8.572;2022-10-16T15:41:25;4.43;;;0.80;;
7440;SDS011;29616;51.950;8.572;2022-10-16T15:43:54;1.75;;;0.75;;